Highland Park, Texas
Current Conditions -  °F | °C
As of 3:53 PM on Saturday 25 Oct 2014 (Local Time) from KDAL Reporting Station
Clear Clear  
Wind Chill: 87°   Ceiling: Unl
Heat Index: 87°   Visibility: 10mi
Dew Point: 59°   Wind: 5mph
Humidity: 39%   Direction: 220°SW
Pressure: 30.06"   Gusts: NA
Location:  32.8486°N, 96.8258°W
Report Text: KDAL 252053Z 22004KT 10SM CLR 31/15 A3006 RMK AO2 SLP174 T03060150 56020
Loading
Personal Weather Stations






























Interactive Weather Map
Tropical Storm Tracking
New forecast layout! Learn more

10-Day Weather Forecast

Advertisements
Track Severe Weather on mobile